LLSR weather

Soroka Medical Center
Beersheba, Southern District, Israel

Public forecast

Using degrees Celsius for public forecast. Weather courtesy of forecast.io.

Closest aviation weather report (METAR) to Soroka Medical Center

Closest report is Ben Gurion International Airport, 45.4 nm (84.1 km) N. Retrieved 2020/01/19 07:20 UTC (0 seconds ago):

LLBG 190720Z 18005KT 5000 RA SCT014 OVC020 12/09 Q1018 TEMPO 3000 SHRA FEW020TCU BKN025

Closest aviation forecast (TAF) to Soroka Medical Center

Forecast is more than 12 hours old.

Closest forecast is El Gora Airport, 36.3 nm (67.2 km) WSW. Retrieved 2019/12/27 12:20 UTC (23 days ago):

TAF HEGR 271100Z 2712/2818 28008G20KT 9999 BKN020 TEMPO 2712/2718 4000 RA